Welcome to Northern Hawkes Bay. New Zealand.
PWS Header
      nz Flag



Hit Counter


W3C Valid W3C Valid logo


    Wairoa

Select any of the Stations below to visit their websites.










Historic Data from Weather Underground
Select the location of interest below. Wairoa is the default. Please have patience, this Data is slow to load in.
Northern Hawkes Bay Historical Data
Daily Summary for November 22, 2017 Units:  Metric    English   Both
« Previous Day
Next Day »
Daily Weekly Monthly Yearly Custom
  High: Low: Average:
Temperature: 20.2 °C 10.5 °C 14.9 °C
Dew Point: 14.3 °C 10.3 °C 12.3 °C
Humidity: 99% 57% 86%
Wind Speed: 15.8km/h 0.0km/h 6.3km/h
Wind Gust: 27.0km/h - -
Wind- - South
Pressure: 1025.6 hPa 1021.2 hPa -
Precipitation: 3.3 mm    
Historical Graphs
 
 
Tabular Data for November 22, 2017
Time Temperature Dew Point Pressure Wind Wind Speed Wind Gust Humidity Rainfall Rate (Hourly) solar
00:01 14.4 °C 11.9 °C 1021.9 hPa SSW 5.0 km/h 11.1 km/h 85% 0.0 mm 0 W/m2
00:06 14.4 °C 12.1 °C 1021.9 hPa SSW 5.0 km/h 11.1 km/h 86% 0.0 mm 0 W/m2
00:11 14.3 °C 12.0 °C 1021.9 hPa SSW 6.1 km/h 13.4 km/h 86% 0.0 mm 0 W/m2
00:16 14.3 °C 12.0 °C 1021.9 hPa SSW 5.0 km/h 13.4 km/h 86% 0.0 mm 0 W/m2
00:21 14.3 °C 12.0 °C 1021.9 hPa SW 9.7 km/h 13.4 km/h 86% 0.0 mm 0 W/m2
00:26 14.4 °C 12.1 °C 1022.2 hPa SW 1.1 km/h 12.2 km/h 86% 0.0 mm 0 W/m2
00:31 14.3 °C 12.0 °C 1021.9 hPa SW 6.1 km/h 12.2 km/h 86% 0.0 mm 0 W/m2
00:36 14.3 °C 12.0 °C 1021.9 hPa SSW 6.1 km/h 13.4 km/h 86% 0.0 mm 0 W/m2
00:41 14.3 °C 12.0 °C 1021.9 hPa South 6.1 km/h 17.2 km/h 86% 0.0 mm 0 W/m2
00:46 14.0 °C 12.2 °C 1021.9 hPa South 3.5 km/h 17.2 km/h 89% 0.0 mm 0 W/m2
00:51 13.6 °C 12.3 °C 1021.9 hPa South 3.5 km/h 12.2 km/h 92% 0.0 mm 0 W/m2
01:01 13.2 °C 12.3 °C 1021.9 hPa South 7.2 km/h 9.7 km/h 94% 0.0 mm 0 W/m2
01:06 13.1 °C 12.3 °C 1021.9 hPa South 7.2 km/h 11.1 km/h 95% 0.0 mm 0 W/m2
01:11 12.8 °C 12.0 °C 1022.2 hPa South 7.2 km/h 14.8 km/h 95% 0.3 mm 0 W/m2
01:16 12.7 °C 12.1 °C 1021.9 hPa South 3.5 km/h 14.8 km/h 96% 0.5 mm 0 W/m2
01:21 12.6 °C 12.2 °C 1022.2 hPa South 8.7 km/h 15.8 km/h 97% 0.5 mm 0 W/m2
01:26 12.7 °C 12.2 °C 1022.2 hPa South 8.7 km/h 15.8 km/h 97% 0.5 mm 0 W/m2
01:43 12.5 °C 12.1 °C 1021.9 hPa South 9.7 km/h 19.5 km/h 97% 0.5 mm 0 W/m2
01:48 12.3 °C 11.8 °C 1021.9 hPa South 8.7 km/h 24.5 km/h 97% 0.5 mm 0 W/m2
01:58 12.2 °C 11.7 °C 1022.2 hPa South 6.1 km/h 15.8 km/h 97% 0.5 mm 0 W/m2
02:03 12.3 °C 11.8 °C 1021.9 hPa South 7.2 km/h 14.8 km/h 97% 0.5 mm 0 W/m2
02:13 12.4 °C 11.9 °C 1021.9 hPa South 14.8 km/h 19.5 km/h 97% 0.5 mm 0 W/m2
02:18 12.3 °C 11.8 °C 1021.9 hPa South 14.8 km/h 19.5 km/h 97% 0.3 mm 0 W/m2
02:23 12.3 °C 11.8 °C 1021.6 hPa South 7.2 km/h 19.5 km/h 97% 0.3 mm 0 W/m2
02:33 12.1 °C 11.7 °C 1021.6 hPa SSE 2.6 km/h 14.8 km/h 97% 0.3 mm 0 W/m2
02:38 12.1 °C 11.7 °C 1021.9 hPa South 3.5 km/h 9.7 km/h 97% 0.3 mm 0 W/m2
02:43 12.2 °C 11.7 °C 1021.6 hPa SSW 7.2 km/h 11.1 km/h 97% 0.3 mm 0 W/m2
02:48 12.4 °C 11.9 °C 1021.6 hPa SSW 2.6 km/h 12.2 km/h 97% 0.3 mm 0 W/m2
03:03 12.6 °C 12.2 °C 1021.6 hPa SW 6.1 km/h 13.4 km/h 97% 0.3 mm 0 W/m2
03:08 12.7 °C 12.2 °C 1021.6 hPa SW 5.0 km/h 13.4 km/h 97% 0.3 mm 0 W/m2
03:13 12.8 °C 12.3 °C 1021.6 hPa SW 11.1 km/h 15.8 km/h 97% 0.0 mm 0 W/m2
03:18 12.8 °C 12.3 °C 1021.6 hPa SW 5.0 km/h 17.2 km/h 97% 0.0 mm 0 W/m2
03:23 12.9 °C 12.3 °C 1021.6 hPa WSW 5.0 km/h 17.2 km/h 96% 0.0 mm 0 W/m2
03:28 12.9 °C 12.3 °C 1021.6 hPa SW 8.7 km/h 13.4 km/h 96% 0.0 mm 0 W/m2
03:33 12.9 °C 12.1 °C 1021.6 hPa SW 7.2 km/h 12.2 km/h 95% 0.0 mm 0 W/m2
03:38 13.0 °C 12.2 °C 1021.2 hPa SW 2.6 km/h 12.2 km/h 95% 0.0 mm 0 W/m2
03:48 13.0 °C 11.9 °C 1021.6 hPa SW 12.2 km/h 18.3 km/h 93% 0.0 mm 0 W/m2
03:58 13.3 °C 12.1 °C 1021.2 hPa SSW 14.8 km/h 20.9 km/h 92% 0.0 mm 0 W/m2
04:03 13.3 °C 12.2 °C 1021.2 hPa SSW 12.2 km/h 20.9 km/h 93% 0.0 mm 0 W/m2
04:08 13.2 °C 12.3 °C 1021.2 hPa South 12.2 km/h 19.5 km/h 94% 0.0 mm 0 W/m2
04:13 13.3 °C 12.3 °C 1021.2 hPa SSW 9.7 km/h 19.5 km/h 94% 0.0 mm 0 W/m2
04:18 13.3 °C 12.5 °C 1021.6 hPa SSW 9.7 km/h 20.9 km/h 95% 0.0 mm 0 W/m2
04:28 13.1 °C 12.5 °C 1021.6 hPa SSW 12.2 km/h 21.9 km/h 96% 0.0 mm 0 W/m2
04:33 12.9 °C 12.3 °C 1021.6 hPa SSW 11.1 km/h 21.9 km/h 96% 0.0 mm 0 W/m2
04:38 12.9 °C 12.3 °C 1021.6 hPa SSW 6.1 km/h 17.2 km/h 96% 0.0 mm 0 W/m2
04:43 12.9 °C 12.3 °C 1021.6 hPa SSW 8.7 km/h 20.9 km/h 96% 0.0 mm 0 W/m2
04:53 12.8 °C 12.2 °C 1021.6 hPa SW 6.1 km/h 14.8 km/h 96% 0.0 mm 0 W/m2
04:58 12.8 °C 12.2 °C 1021.6 hPa SW 9.7 km/h 17.2 km/h 96% 0.0 mm 0 W/m2
05:03 12.9 °C 12.1 °C 1021.6 hPa SW 8.7 km/h 17.2 km/h 95% 0.0 mm 0 W/m2
05:13 13.0 °C 12.1 °C 1021.6 hPa SW 8.7 km/h 13.4 km/h 94% 0.0 mm 0 W/m2
05:33 13.1 °C 12.0 °C 1021.6 hPa SSW 2.6 km/h 21.9 km/h 93% 0.0 mm 0 W/m2
05:43 13.1 °C 12.2 °C 1021.6 hPa SSW 8.7 km/h 13.4 km/h 94% 0.0 mm 0 W/m2
05:53 13.1 °C 12.2 °C 1021.9 hPa SW 6.1 km/h 15.8 km/h 94% 0.0 mm 0 W/m2
05:58 13.0 °C 12.2 °C 1021.9 hPa SW 5.0 km/h 12.2 km/h 95% 0.0 mm 1 W/m2
06:03 13.1 °C 12.2 °C 1022.2 hPa SSW 9.7 km/h 18.3 km/h 94% 0.0 mm 2 W/m2
06:18 12.9 °C 11.9 °C 1022.2 hPa SSW 3.5 km/h 23.3 km/h 94% 0.0 mm 7 W/m2
06:23 12.7 °C 11.9 °C 1022.2 hPa SSW 7.2 km/h 19.5 km/h 95% 0.0 mm 5 W/m2
06:28 12.9 °C 12.3 °C 1022.2 hPa SSW 3.5 km/h 15.8 km/h 96% 0.0 mm 3 W/m2
06:48 12.9 °C 12.4 °C 1022.2 hPa SSW 5.0 km/h 27.0 km/h 97% 0.3 mm 34 W/m2
06:53 12.9 °C 12.4 °C 1022.6 hPa South 8.7 km/h 14.8 km/h 97% 0.3 mm 32 W/m2
06:58 12.7 °C 12.2 °C 1022.6 hPa South 13.4 km/h 27.0 km/h 97% 0.3 mm 44 W/m2
07:03 12.5 °C 12.1 °C 1022.6 hPa South 5.0 km/h 27.0 km/h 97% 0.5 mm 48 W/m2
07:08 12.6 °C 12.2 °C 1022.6 hPa South 12.2 km/h 19.5 km/h 97% 1.0 mm 60 W/m2
07:23 12.7 °C 12.2 °C 1022.9 hPa SW 12.2 km/h 21.9 km/h 97% 1.0 mm 87 W/m2
07:33 12.9 °C 12.4 °C 1022.9 hPa SW 12.2 km/h 18.3 km/h 97% 0.5 mm 90 W/m2
07:38 12.9 °C 12.4 °C 1022.9 hPa SSW 8.7 km/h 17.2 km/h 97% 0.5 mm 72 W/m2
07:48 12.8 °C 12.3 °C 1022.9 hPa SSW 15.8 km/h 20.9 km/h 97% 1.0 mm 89 W/m2
07:58 12.8 °C 12.3 °C 1022.9 hPa South 6.1 km/h 18.3 km/h 97% 0.5 mm 75 W/m2
08:03 12.7 °C 12.2 °C 1023.2 hPa South 13.4 km/h 18.3 km/h 97% 0.5 mm 57 W/m2
08:08 12.6 °C 12.2 °C 1023.2 hPa South 11.1 km/h 18.3 km/h 97% 0.5 mm 67 W/m2
08:13 12.6 °C 12.2 °C 1023.2 hPa South 9.7 km/h 18.3 km/h 97% 0.5 mm 79 W/m2
08:18 12.7 °C 12.2 °C 1023.2 hPa South 8.7 km/h 18.3 km/h 97% 0.5 mm 105 W/m2
08:23 12.7 °C 12.2 °C 1023.2 hPa SSW 6.1 km/h 15.8 km/h 97% 1.0 mm 125 W/m2
08:28 12.7 °C 12.2 °C 1023.2 hPa SSW 9.7 km/h 19.5 km/h 97% 1.0 mm 156 W/m2
08:33 12.9 °C 12.4 °C 1023.6 hPa SSW 13.4 km/h 20.9 km/h 97% 1.0 mm 197 W/m2
08:38 13.0 °C 12.8 °C 1023.2 hPa SW 5.0 km/h 20.9 km/h 99% 1.0 mm 232 W/m2
08:43 13.2 °C 13.1 °C 1023.2 hPa SW 9.7 km/h 17.2 km/h 99% 1.0 mm 225 W/m2
08:48 13.5 °C 13.3 °C 1023.2 hPa SW 9.7 km/h 17.2 km/h 99% 0.5 mm 187 W/m2
08:58 13.7 °C 13.6 °C 1023.2 hPa SSW 14.8 km/h 21.9 km/h 99% 0.5 mm 133 W/m2
09:03 13.7 °C 13.2 °C 1023.2 hPa SW 7.2 km/h 21.9 km/h 97% 0.5 mm 123 W/m2
09:08 13.8 °C 13.2 °C 1023.2 hPa SW 11.1 km/h 21.9 km/h 96% 0.3 mm 133 W/m2
09:13 13.8 °C 13.0 °C 1023.2 hPa SSW 15.8 km/h 21.9 km/h 95% 0.3 mm 184 W/m2
09:18 14.0 °C 12.9 °C 1023.2 hPa SW 14.8 km/h 21.9 km/h 93% 0.3 mm 177 W/m2
09:23 14.1 °C 12.8 °C 1023.6 hPa SW 14.8 km/h 21.9 km/h 92% 0.0 mm 205 W/m2
09:33 14.6 °C 13.2 °C 1023.2 hPa SW 11.1 km/h 20.9 km/h 91% 0.0 mm 224 W/m2
09:38 14.7 °C 13.1 °C 1023.6 hPa SSW 9.7 km/h 20.9 km/h 90% 0.0 mm 186 W/m2
09:43 14.5 °C 12.7 °C 1023.6 hPa SSW 11.1 km/h 20.9 km/h 89% 0.0 mm 88 W/m2
09:48 14.2 °C 12.6 °C 1023.6 hPa SW 13.4 km/h 19.5 km/h 90% 0.0 mm 106 W/m2
09:58 13.8 °C 12.8 °C 1023.6 hPa SW 9.7 km/h 21.9 km/h 94% 0.3 mm 161 W/m2
10:03 13.7 °C 12.9 °C 1023.6 hPa SSW 7.2 km/h 17.2 km/h 95% 0.3 mm 108 W/m2
10:08 13.5 °C 12.9 °C 1023.6 hPa SSW 11.1 km/h 18.3 km/h 96% 0.3 mm 174 W/m2
10:18 13.4 °C 12.9 °C 1023.6 hPa South 8.7 km/h 17.2 km/h 97% 0.5 mm 172 W/m2
10:23 13.5 °C 13.2 °C 1023.6 hPa South 7.2 km/h 14.8 km/h 98% 0.5 mm 226 W/m2
10:38 14.4 °C 13.4 °C 1023.6 hPa SW 7.2 km/h 14.8 km/h 94% 0.5 mm 318 W/m2
10:43 15.0 °C 13.7 °C 1023.9 hPa WSW 7.2 km/h 14.8 km/h 92% 0.5 mm 270 W/m2
10:48 15.2 °C 13.4 °C 1023.6 hPa SW 7.2 km/h 15.8 km/h 89% 0.5 mm 352 W/m2
10:53 15.4 °C 13.3 °C 1023.9 hPa SSW 12.2 km/h 19.5 km/h 87% 0.5 mm 333 W/m2
10:58 15.5 °C 13.2 °C 1023.9 hPa SSW 14.8 km/h 19.5 km/h 86% 0.3 mm 305 W/m2
11:03 15.4 °C 12.9 °C 1023.9 hPa SW 9.7 km/h 17.2 km/h 85% 0.3 mm 269 W/m2
11:08 15.5 °C 13.2 °C 1023.9 hPa SW 15.8 km/h 18.3 km/h 86% 0.3 mm 285 W/m2
11:31 15.7 °C 13.2 °C 1024.3 hPa SW 12.2 km/h 21.9 km/h 85% 0.0 mm 356 W/m2
11:36 15.6 °C 12.9 °C 1024.3 hPa SW 12.2 km/h 21.9 km/h 84% 0.0 mm 680 W/m2
11:41 15.9 °C 13.2 °C 1024.3 hPa SSW 14.8 km/h 21.9 km/h 84% 0.0 mm 544 W/m2
12:04 16.5 °C 12.4 °C 1024.3 hPa SSW 12.2 km/h 23.3 km/h 77% 0.0 mm 1035 W/m2
12:10 16.7 °C 12.8 °C 1024.3 hPa SSW 9.7 km/h 21.9 km/h 78% 0.0 mm 486 W/m2
12:20 16.5 °C 12.7 °C 1024.3 hPa SSW 13.4 km/h 19.5 km/h 78% 0.0 mm 605 W/m2
12:25 17.0 °C 12.7 °C 1024.3 hPa SSW 7.2 km/h 19.5 km/h 76% 0.0 mm 608 W/m2
12:30 17.0 °C 12.1 °C 1024.3 hPa SSW 13.4 km/h 20.9 km/h 73% 0.0 mm 657 W/m2
12:35 16.8 °C 12.2 °C 1024.3 hPa SSW 12.2 km/h 20.9 km/h 74% 0.0 mm 675 W/m2
12:40 17.1 °C 12.2 °C 1024.3 hPa SSW 14.8 km/h 20.9 km/h 73% 0.0 mm 584 W/m2
12:51 17.1 °C 12.7 °C 1024.3 hPa SSW 8.7 km/h 18.3 km/h 75% 0.0 mm 910 W/m2
12:56 17.6 °C 12.9 °C 1024.3 hPa SSW 6.1 km/h 15.8 km/h 74% 0.0 mm 845 W/m2
13:01 17.5 °C 12.6 °C 1024.3 hPa South 7.2 km/h 18.3 km/h 73% 0.0 mm 860 W/m2
13:06 17.3 °C 12.2 °C 1024.3 hPa South 12.2 km/h 18.3 km/h 72% 0.0 mm 711 W/m2
13:11 17.3 °C 12.2 °C 1024.3 hPa South 11.1 km/h 17.2 km/h 72% 0.0 mm 762 W/m2
13:16 17.2 °C 12.1 °C 1024.3 hPa South 8.7 km/h 17.2 km/h 72% 0.0 mm 541 W/m2
13:21 17.2 °C 12.3 °C 1024.3 hPa South 7.2 km/h 14.8 km/h 73% 0.0 mm 752 W/m2
13:26 17.6 °C 12.9 °C 1024.3 hPa South 7.2 km/h 15.8 km/h 74% 0.0 mm 893 W/m2
13:31 17.7 °C 12.8 °C 1024.3 hPa South 7.2 km/h 15.8 km/h 73% 0.0 mm 791 W/m2
13:41 17.6 °C 12.9 °C 1024.3 hPa SSE 6.1 km/h 15.8 km/h 74% 0.0 mm 733 W/m2
13:46 17.6 °C 13.1 °C 1024.3 hPa SSE 3.5 km/h 17.2 km/h 75% 0.0 mm 456 W/m2
13:51 17.9 °C 13.4 °C 1024.3 hPa South 3.5 km/h 17.2 km/h 75% 0.0 mm 644 W/m2
13:56 18.4 °C 14.1 °C 1024.3 hPa South 6.1 km/h 13.4 km/h 76% 0.0 mm 720 W/m2
14:01 18.1 °C 13.6 °C 1024.3 hPa South 9.7 km/h 15.8 km/h 75% 0.0 mm 711 W/m2
14:06 18.1 °C 14.0 °C 1024.3 hPa SSE 5.0 km/h 17.2 km/h 77% 0.0 mm 451 W/m2
14:11 18.4 °C 14.3 °C 1024.3 hPa SE 2.6 km/h 17.2 km/h 77% 0.0 mm 383 W/m2
14:16 18.1 °C 13.8 °C 1024.6 hPa SE 11.1 km/h 13.4 km/h 76% 0.0 mm 697 W/m2
14:27 18.2 °C 13.9 °C 1024.3 hPa SE 3.5 km/h 13.4 km/h 76% 0.0 mm 706 W/m2
14:32 17.9 °C 13.4 °C 1024.3 hPa SSE 3.5 km/h 14.8 km/h 75% 0.0 mm 726 W/m2
14:42 17.7 °C 13.6 °C 1024.3 hPa South 8.7 km/h 17.2 km/h 77% 0.0 mm 263 W/m2
14:47 17.7 °C 13.4 °C 1024.3 hPa Calm   18.3 km/h 76% 0.0 mm 683 W/m2
14:52 18.3 °C 14.0 °C 1024.3 hPa SSE 3.5 km/h 18.3 km/h 76% 0.0 mm 672 W/m2
14:57 18.3 °C 13.6 °C 1024.3 hPa South 3.5 km/h 14.8 km/h 74% 0.0 mm 460 W/m2
15:02 18.4 °C 13.9 °C 1024.3 hPa South 8.7 km/h 14.8 km/h 75% 0.0 mm 644 W/m2
15:07 18.5 °C 13.8 °C 1024.3 hPa SSE 12.2 km/h 15.8 km/h 74% 0.0 mm 638 W/m2
15:17 18.5 °C 14.0 °C 1023.9 hPa SSE 3.5 km/h 15.8 km/h 75% 0.0 mm 622 W/m2
15:22 18.9 °C 13.8 °C 1023.9 hPa ESE 3.5 km/h 15.8 km/h 72% 0.0 mm 591 W/m2
15:27 18.9 °C 13.6 °C 1024.3 hPa SE 6.1 km/h 12.2 km/h 71% 0.0 mm 596 W/m2
15:37 19.0 °C 12.9 °C 1023.9 hPa SE 5.0 km/h 12.2 km/h 68% 0.0 mm 572 W/m2
16:01 19.4 °C 12.4 °C 1023.9 hPa SSE 3.5 km/h 12.2 km/h 64% 0.0 mm 527 W/m2
16:11 19.9 °C 12.4 °C 1023.6 hPa SE 3.5 km/h 9.7 km/h 62% 0.0 mm 506 W/m2
16:27 19.6 °C 11.4 °C 1023.6 hPa SSE 9.7 km/h 14.8 km/h 59% 0.0 mm 469 W/m2
16:42 20.1 °C 12.1 °C 1023.9 hPa SE 5.0 km/h 9.7 km/h 60% 0.0 mm 435 W/m2
16:47 20.0 °C 11.8 °C 1023.9 hPa SE 1.1 km/h 9.7 km/h 59% 0.0 mm 423 W/m2
16:57 19.8 °C 12.6 °C 1023.9 hPa SE 3.5 km/h 12.2 km/h 63% 0.0 mm 397 W/m2
16:58 19.8 °C 12.6 °C 1023.9 hPa SE 3.5 km/h 12.2 km/h 63% 0.0 mm 395 W/m2
17:03 20.2 °C 12.4 °C 1023.9 hPa SE 2.6 km/h 12.2 km/h 61% 0.0 mm 383 W/m2
17:08 20.2 °C 11.4 °C 1023.9 hPa SE 3.5 km/h 9.7 km/h 57% 0.0 mm 371 W/m2
17:41 19.7 °C 12.0 °C 1023.9 hPa SE 1.1 km/h 11.1 km/h 61% 0.0 mm 288 W/m2
17:46 19.8 °C 12.6 °C 1023.6 hPa SE 1.1 km/h 11.1 km/h 63% 0.0 mm 277 W/m2
17:51 20.1 °C 11.3 °C 1023.6 hPa SE 6.1 km/h 9.7 km/h 57% 0.0 mm 267 W/m2
18:01 19.9 °C 11.9 °C 1023.6 hPa SE 6.1 km/h 8.7 km/h 60% 0.0 mm 241 W/m2
18:06 19.8 °C 11.8 °C 1023.6 hPa SE 2.6 km/h 7.2 km/h 60% 0.0 mm 231 W/m2
18:16 19.6 °C 11.9 °C 1023.9 hPa SE 5.0 km/h 12.2 km/h 61% 0.0 mm 210 W/m2
18:21 19.5 °C 11.8 °C 1023.6 hPa SE 3.5 km/h 12.2 km/h 61% 0.0 mm 201 W/m2
18:26 19.5 °C 12.1 °C 1023.9 hPa Calm   8.7 km/h 62% 0.0 mm 189 W/m2
18:31 19.5 °C 12.3 °C 1023.9 hPa SE 3.5 km/h 8.7 km/h 63% 0.0 mm 134 W/m2
18:36 18.4 °C 11.9 °C 1023.9 hPa SE 3.5 km/h 11.1 km/h 66% 0.0 mm 166 W/m2
18:41 18.4 °C 12.2 °C 1023.9 hPa SSE 2.6 km/h 11.1 km/h 67% 0.0 mm 137 W/m2
18:46 17.9 °C 11.7 °C 1023.9 hPa Calm   6.1 km/h 67% 0.0 mm 43 W/m2
18:51 16.8 °C 11.7 °C 1023.9 hPa SE 1.1 km/h 7.2 km/h 72% 0.0 mm 38 W/m2
18:56 16.5 °C 11.8 °C 1023.9 hPa ESE 1.1 km/h 7.2 km/h 74% 0.0 mm 85 W/m2
19:01 16.8 °C 12.3 °C 1023.9 hPa SE 2.6 km/h 7.2 km/h 75% 0.0 mm 117 W/m2
19:06 17.2 °C 12.1 °C 1023.9 hPa Calm   7.2 km/h 72% 0.0 mm 34 W/m2
19:16 16.3 °C 11.9 °C 1023.9 hPa SSE 1.1 km/h 7.2 km/h 75% 0.0 mm 37 W/m2
19:21 16.6 °C 12.3 °C 1024.3 hPa SSE 6.1 km/h 8.7 km/h 76% 0.0 mm 88 W/m2
19:26 17.5 °C 12.6 °C 1024.3 hPa SSE 1.1 km/h 8.7 km/h 73% 0.0 mm 77 W/m2
19:31 18.1 °C 12.8 °C 1024.3 hPa Calm   8.7 km/h 71% 0.0 mm 66 W/m2
19:51 17.6 °C 12.3 °C 1024.3 hPa Calm   3.5 km/h 71% 0.0 mm 16 W/m2
19:56 16.6 °C 11.7 °C 1024.3 hPa Calm   2.6 km/h 73% 0.0 mm 9 W/m2
20:02 15.8 °C 11.6 °C 1024.3 hPa Calm   3.5 km/h 76% 0.0 mm 5 W/m2
20:07 15.3 °C 11.5 °C 1024.6 hPa Calm   3.5 km/h 78% 0.0 mm 2 W/m2
20:12 15.1 °C 11.5 °C 1024.6 hPa Calm   1.1 km/h 79% 0.0 mm 0 W/m2
20:17 14.8 °C 11.8 °C 1024.6 hPa Calm   1.1 km/h 82% 0.0 mm 0 W/m2
20:27 14.2 °C 11.3 °C 1024.6 hPa Calm     83% 0.0 mm 0 W/m2
20:37 13.8 °C 11.3 °C 1024.6 hPa Calm     85% 0.0 mm 0 W/m2
20:42 13.8 °C 11.5 °C 1024.6 hPa Calm     86% 0.0 mm 0 W/m2
20:47 13.6 °C 11.3 °C 1024.6 hPa Calm     86% 0.0 mm 0 W/m2
20:52 13.5 °C 11.2 °C 1024.6 hPa Calm     86% 0.0 mm 0 W/m2
21:02 13.3 °C 11.2 °C 1024.6 hPa Calm   1.1 km/h 87% 0.0 mm 0 W/m2
21:07 13.1 °C 11.3 °C 1024.9 hPa Calm   1.1 km/h 89% 0.0 mm 0 W/m2
21:12 13.0 °C 11.4 °C 1024.9 hPa Calm   1.1 km/h 90% 0.0 mm 0 W/m2
21:22 12.7 °C 11.4 °C 1024.9 hPa Calm     92% 0.0 mm 0 W/m2
21:32 12.5 °C 11.4 °C 1024.9 hPa Calm     93% 0.0 mm 0 W/m2
21:47 12.0 °C 11.1 °C 1024.9 hPa Calm     94% 0.0 mm 0 W/m2
21:52 12.0 °C 11.1 °C 1024.9 hPa Calm     94% 0.0 mm 0 W/m2
21:57 12.0 °C 11.2 °C 1025.3 hPa Calm     95% 0.0 mm 0 W/m2
22:07 11.9 °C 11.4 °C 1024.9 hPa Calm     97% 0.0 mm 0 W/m2
22:17 11.7 °C 11.4 °C 1025.3 hPa Calm     98% 0.0 mm 0 W/m2
22:22 11.6 °C 11.3 °C 1024.9 hPa Calm     98% 0.0 mm 0 W/m2
22:37 11.3 °C 11.0 °C 1025.3 hPa Calm     98% 0.0 mm 0 W/m2
22:42 11.2 °C 10.9 °C 1025.3 hPa Calm     98% 0.0 mm 0 W/m2
22:47 11.1 °C 10.8 °C 1025.3 hPa Calm     98% 0.0 mm 0 W/m2
22:52 11.1 °C 10.8 °C 1025.3 hPa Calm     98% 0.0 mm 0 W/m2
22:57 11.1 °C 10.8 °C 1025.3 hPa Calm     98% 0.0 mm 0 W/m2
23:02 10.9 °C 10.8 °C 1025.6 hPa Calm     99% 0.0 mm 0 W/m2
23:07 10.9 °C 10.8 °C 1025.6 hPa Calm     99% 0.0 mm 0 W/m2
23:22 10.8 °C 10.7 °C 1025.6 hPa Calm     99% 0.0 mm 0 W/m2
23:27 10.7 °C 10.6 °C 1024.9 hPa Calm     99% 0.0 mm 0 W/m2
23:53 10.5 °C 10.3 °C 1025.3 hPa Calm     99% 0.0 mm 0 W/m2
Northern Hawkes Bay. New Zealand Historic Data
Compliments of Weather Underground - 2 mb